• Join FlightAware (Why Join?)
  • Login
  • US Flag 
06:31PM EST


 

Airport Tracker/Info


-or-


 

Live Flight TrackerFlight Track Log ✈ TRS587 ✈ 06-Sep-2013 ✈ KMCO - KMDW

Flight Track Log - Related Links

Times and Time Zones

All times are in EDT time to prevent confusion due to time zone crossing. See the TRS587 flight status page for this flight to view local times or setup timezone preferences in your user account.

Time Position Orientation Groundspeed Altitude Reporting Facility
EDT Latitude Longitude Course Direction KTS MPH feet Rate Location/Type
11:39AM 28.4000 -81.3000 210° Southwest 162 186 1,000  Level Orlando TRACON
11:40AM 28.3500 -81.3333 210° Southwest 240 276 2,700 1,440 Climbing Orlando TRACON
11:41AM 28.3833 -81.3833 307° West 276 318 4,000 2,100 Climbing Orlando TRACON
11:42AM 28.4667 -81.4000 350° North 277 319 6,500 2,340 Climbing Orlando TRACON
11:43AM 28.5500 -81.4333 341° North 288 331 9,000 1,560 Climbing Orlando TRACON
11:45AM 28.6975 -81.4914 341° North 334 384 11,400 1,440 Climbing Jacksonville Center
11:46AM 28.7958 -81.5186 346° North 346 398 13,400 1,920 Climbing Jacksonville Center
11:47AM 28.8961 -81.5431 348° North 358 412 15,300 1,620 Climbing Jacksonville Center
11:48AM 28.9989 -81.5725 346° North 364 419 16,700 1,500 Climbing Jacksonville Center
11:49AM 29.1097 -81.5972 349° North 385 443 18,400 1,740 Climbing Jacksonville Center
11:50AM 29.2289 -81.6314 346° North 395 455 20,200 1,680 Climbing Jacksonville Center
11:51AM 29.3400 -81.6633 346° North 400 460 21,800 1,380 Climbing Jacksonville Center
11:52AM 29.4572 -81.6928 348° North 405 466 23,000 1,260 Climbing Jacksonville Center
11:53AM 29.5764 -81.7247 347° North 422 486 24,400 1,260 Climbing Jacksonville Center
11:54AM 29.6978 -81.7569 347° North 435 501 25,600 1,200 Climbing Jacksonville Center
11:55AM 29.8211 -81.7889 347° North 440 506 26,800 1,140 Climbing Jacksonville Center
11:56AM 29.9467 -81.8236 347° North 450 518 27,900 1,140 Climbing Jacksonville Center
11:57AM 30.0639 -81.8508 349° North 457 526 29,100 1,260 Climbing Jacksonville Center
11:58AM 30.1853 -81.8833 347° North 457 526 30,500 1,320 Climbing Jacksonville Center
11:59AM 30.3086 -81.9181 346° North 450 518 31,800 1,200 Climbing Jacksonville Center
12:00PM 30.4300 -81.9578 344° North 450 518 33,000 600 Climbing Jacksonville Center
12:01PM 30.5472 -81.9953 345° North 445 512 33,000  Level Jacksonville Center
12:02PM 30.6708 -82.0400 343° North 445 512 33,000  Level Jacksonville Center
12:03PM 30.7881 -82.0800 344° North 445 512 33,000  Level Jacksonville Center
12:04PM 30.9072 -82.1203 344° North 439 505 33,000  Level Jacksonville Center
12:05PM 31.0264 -82.1603 344° North 439 505 33,000  Level Jacksonville Center
12:06PM 31.1478 -82.2008 344° North 439 505 33,000  Level Jacksonville Center
12:07PM 31.2669 -82.2411 344° North 439 505 33,000  Level Jacksonville Center
12:08PM 31.3842 -82.2842 343° North 439 505 33,000  Level Jacksonville Center
12:09PM 31.5056 -82.3222 345° North 439 505 33,000  Level Jacksonville Center
12:10PM 31.7378 -82.3978 345° North 454 522 33,000  Level Atlanta Center
12:11PM 31.8572 -82.4397 343° North 449 517 33,000  Level Atlanta Center
12:12PM 31.9747 -82.4817 343° North 443 510 33,000  Level Atlanta Center
12:13PM 32.0942 -82.5214 344° North 438 504 33,000  Level Atlanta Center
12:14PM 32.2117 -82.5611 344° North 438 504 33,000  Level Atlanta Center
12:15PM 32.3289 -82.6008 344° North 438 504 33,000  Level Atlanta Center
12:16PM 32.4506 -82.6433 344° North 443 510 33,000 300 Level Atlanta Center
12:17PM 32.5636 -82.6883 341° North 437 503 33,700 480 Climbing Atlanta Center
12:18PM 32.6789 -82.7236 346° North 431 496 34,000 120 Climbing Atlanta Center
12:19PM 32.7942 -82.7661 343° North 431 496 34,000  Level Atlanta Center
12:20PM 32.9156 -82.8089 344° North 431 496 34,000  Level Atlanta Center
12:21PM 33.0308 -82.8494 345° North 436 502 34,000  Level Atlanta Center
12:22PM 33.0304 -82.8448 345° North  Level FlightAware Approximate
12:22PM 33.1503 -82.8925 343° North 436 502 34,000  Level Atlanta Center
12:23PM 33.2694 -82.9333 344° North 442 509 34,000  Level Atlanta Center
12:24PM 33.3867 -82.9714 345° North 447 514 34,000  Level Atlanta Center
12:25PM 33.5019 -83.0175 342° North 441 507 34,000  Level Atlanta Center
12:26PM 33.6211 -83.0558 345° North 441 507 34,000  Level Atlanta Center
12:27PM 33.7406 -83.0969 344° North 446 513 34,000  Level Atlanta Center
12:28PM 33.8556 -83.1408 342° North 441 507 34,000  Level Atlanta Center
12:29PM 33.9750 -83.1822 344° North 441 507 34,000  Level Atlanta Center
12:30PM 34.0922 -83.2236 344° North 436 502 34,000  Level Atlanta Center
12:31PM 34.2114 -83.2675 343° North 443 510 34,000  Level Atlanta Center
12:32PM 34.3158 -83.3069 343° North 443 510 34,000  Level Atlanta Center
12:33PM 34.4331 -83.3486 344° North 443 510 34,000  Level Atlanta Center
12:34PM 34.5522 -83.3931 343° North 443 510 34,000  Level Atlanta Center
12:35PM 34.6797 -83.4428 342° North 443 510 34,000  Level Atlanta Center
12:36PM 34.7969 -83.4847 344° North 443 510 34,000  Level Atlanta Center
12:37PM 34.9119 -83.5272 343° North 443 510 34,000  Level Atlanta Center
12:38PM 35.0164 -83.5669 343° North 443 510 34,000  Level Atlanta Center
12:39PM 35.1353 -83.6094 344° North 443 510 34,000  Level Atlanta Center
12:40PM 35.2525 -83.6547 342° North 443 510 34,000  Level Atlanta Center
12:41PM 35.3714 -83.6950 345° North 443 510 34,000  Level Atlanta Center
12:42PM 35.4883 -83.7403 343° North 443 510 34,000  Level Atlanta Center
12:43PM 35.6053 -83.7833 343° North 443 510 34,000  Level Atlanta Center
12:44PM 35.7203 -83.8264 343° North 443 510 34,000  Level Atlanta Center
12:45PM 35.8392 -83.8722 343° North 443 510 34,000  Level Atlanta Center
12:46PM 35.9478 -83.9283 337° Northwest 438 504 34,000  Level Atlanta Center
12:47PM 36.0519 -84.0053 329° Northwest 432 497 34,000  Level Atlanta Center
12:48PM 36.1322 -84.0642 329° Northwest 435 501 34,000  Level Indianapolis Center
12:49PM 36.2364 -84.1414 329° Northwest 437 503 34,000  Level Indianapolis Center
12:50PM 36.3403 -84.2186 329° Northwest 438 504 34,000  Level Indianapolis Center
12:51PM 36.4425 -84.2967 328° Northwest 435 501 34,000  Level Indianapolis Center
12:52PM 36.5589 -84.3847 329° Northwest 434 499 34,000  Level Indianapolis Center
12:53PM 36.6628 -84.4628 329° Northwest 435 501 34,000  Level Indianapolis Center
12:54PM 36.7717 -84.5450 329° Northwest 433 498 34,000  Level Indianapolis Center
12:55PM 36.8747 -84.6236 329° Northwest 435 501 34,000  Level Indianapolis Center
12:56PM 36.9786 -84.7017 329° Northwest 436 502 34,000  Level Indianapolis Center
12:57PM 37.0950 -84.7925 328° Northwest 435 501 34,000  Level Indianapolis Center
12:58PM 37.2000 -84.8722 329° Northwest 437 503 34,000  Level Indianapolis Center
12:59PM 37.3031 -84.9522 328° Northwest 436 502 34,000  Level Indianapolis Center
01:01PM 37.4069 -85.0306 329° Northwest 434 499 34,000  Level Indianapolis Center
01:02PM 37.5097 -85.1117 328° Northwest 434 499 34,000  Level Indianapolis Center
01:03PM 37.6128 -85.1925 328° Northwest 435 501 34,000  Level Indianapolis Center
01:04PM 37.7456 -85.2544 340° North 442 509 34,000  Level Indianapolis Center
01:05PM 37.8508 -85.2836 348° North 441 507 34,000  Level Indianapolis Center
01:06PM 37.9708 -85.3172 348° North 443 510 34,000  Level Indianapolis Center
01:07PM 38.1147 -85.3569 348° North 441 507 34,000  Level Indianapolis Center
01:08PM 38.2342 -85.3900 348° North 440 506 34,000  Level Indianapolis Center
01:09PM 38.3525 -85.4239 347° North 437 503 34,000  Level Indianapolis Center
01:10PM 38.4711 -85.4575 347° North 435 501 34,000  Level Indianapolis Center
01:12PM 38.7153 -85.5275 347° North 433 498 34,000 -240 Level Indianapolis Center
01:13PM 38.8325 -85.5611 347° North 434 499 33,300 -780 Descending Indianapolis Center
01:14PM 38.9503 -85.5939 348° North 434 499 32,400 -1,020 Descending Indianapolis Center
01:15PM 39.0939 -85.6353 347° North 441 507 31,200 -1,080 Descending Indianapolis Center
01:16PM 39.2167 -85.6711 347° North 452 520 30,200 -600 Descending Indianapolis Center
01:17PM 39.3378 -85.7053 348° North 450 518 30,000 -540 Descending Indianapolis Center
01:18PM 39.4619 -85.7433 347° North 457 526 29,200 -960 Descending Indianapolis Center
01:19PM 39.5831 -85.7775 348° North 453 521 28,100 -1,200 Descending Indianapolis Center
01:20PM 39.7236 -85.8186 347° North 439 505 26,800 -1,560 Descending Indianapolis Center
01:21PM 39.8397 -85.8519 348° North 435 501 24,900 -1,380 Descending Indianapolis Center
01:22PM 39.9533 -85.8861 347° North 428 493 24,000 -480 Descending Indianapolis Center
01:23PM 40.0658 -85.9225 346° North 422 486 24,000  Level Indianapolis Center
01:24PM 40.1728 -85.9794 338° Northwest 420 483 24,000 -360 Level Indianapolis Center
01:25PM 40.3033 -86.0472 338° Northwest 423 487 23,300 -720 Descending Indianapolis Center
01:26PM 40.4103 -86.1006 339° North 416 479 22,600 -660 Descending Indianapolis Center
01:27PM 40.5156 -86.1553 338° Northwest 410 472 22,000 -600 Descending Indianapolis Center
01:28PM 40.6206 -86.2092 339° North 408 470 21,400 -1,260 Descending Indianapolis Center
01:29PM 40.7244 -86.2639 338° Northwest 405 466 19,500 -2,280 Descending Indianapolis Center
01:30PM 40.8442 -86.3261 339° North 390 449 16,800 -2,580 Descending Indianapolis Center
01:32PM 40.9372 -86.3756 338° Northwest 371 427 14,200 -2,460 Descending Indianapolis Center
01:33PM 41.0469 -86.4386 337° Northwest 344 396 11,100 -1,440 Descending Chicago Center
01:34PM 41.1022 -86.5389 306° West 338 389 10,900 -540 Descending Chicago Center
01:35PM 41.1653 -86.6325 312° West 339 390 10,000 -480 Descending Chicago Center
01:36PM 41.2308 -86.7294 312° West 336 387 10,000  Level Chicago Center
01:37PM 41.2908 -86.8219 311° West 333 383 10,000  Level Chicago Center
01:38PM 41.3636 -86.9283 312° West 326 375 10,000 -300 Level Chicago Center
01:39PM 41.4139 -87.0044 311° West 282 325 9,500 -1,140 Descending Chicago Center
01:40PM 41.4639 -87.0794 312° West 274 315 7,700 -1,680 Descending Chicago Center
01:41PM 41.5128 -87.1550 311° West 272 313 6,100 -900 Descending Chicago Center
01:42PM 41.5344 -87.2467 288° West 260 299 5,900 -120 Descending Chicago Center
01:43PM 41.5600 -87.3597 287° West 265 305 5,900 -780 Level Chicago Center
01:44PM 41.5814 -87.4531 287° West 265 305 4,300 -1,020 Descending Chicago Center
01:45PM 41.6222 -87.5308 305° West 271 312 3,900 -300 Descending Chicago Center
01:46PM 41.6675 -87.5886 316° Northwest 246 283 3,800 -540 Descending Chicago Center
01:47PM 41.7039 -87.6378 315° West 217 250 2,800 -1,020 Descending Chicago Center
01:48PM 41.7436 -87.6950 313° West 192 221 1,700 -660 Descending Chicago Center
01:49PM 41.7806 -87.6900 North 167 192 1,500 -300 Descending Chicago Center
01:50PM 41.8086 -87.7178 324° Northwest 150 173 1,100 -420 Descending Chicago Center